createdAt,value
2023-05-08T00:00:12.796Z,1.52
2023-05-08T00:05:11.784Z,2.47
2023-05-08T00:10:11.466Z,1.60
2023-05-08T00:15:12.818Z,1.42
2023-05-08T00:20:12.863Z,1.70
2023-05-08T00:25:11.752Z,1.27
2023-05-08T00:30:13.276Z,1.60
2023-05-08T00:35:12.785Z,1.00
2023-05-08T00:40:12.824Z,1.45
2023-05-08T00:45:13.368Z,1.23
2023-05-08T00:50:13.084Z,1.60
2023-05-08T00:55:12.117Z,1.48
2023-05-08T01:00:13.460Z,1.42
2023-05-08T01:05:13.155Z,1.30
2023-05-08T01:10:12.437Z,1.20
2023-05-08T01:15:16.988Z,1.92
2023-05-08T01:20:27.373Z,1.63
2023-05-08T01:25:54.442Z,1.45
2023-05-08T01:31:13.539Z,1.83
2023-05-08T01:36:21.879Z,1.50
2023-05-08T01:41:28.794Z,1.58
2023-05-08T01:46:29.572Z,1.42
2023-05-08T01:51:33.472Z,1.40
2023-05-08T01:56:32.961Z,1.30
2023-05-08T02:01:35.340Z,1.17
2023-05-08T02:06:37.294Z,1.70
2023-05-08T02:11:37.970Z,1.40
2023-05-08T02:16:38.854Z,1.67
2023-05-08T02:21:41.803Z,1.30
2023-05-08T02:26:42.622Z,1.20
2023-05-08T02:31:42.818Z,1.98
2023-05-08T02:36:44.381Z,1.92
2023-05-08T02:41:44.451Z,1.80
2023-05-08T02:46:50.582Z,2.15
2023-05-08T02:51:57.080Z,2.42
2023-05-08T02:57:01.802Z,2.58
2023-05-08T03:02:08.083Z,1.83
2023-05-08T03:07:09.413Z,1.70
2023-05-08T03:12:14.356Z,1.70
2023-05-08T03:17:17.461Z,1.80
2023-05-08T03:22:20.434Z,1.65
2023-05-08T03:27:20.519Z,1.70
2023-05-08T03:32:21.309Z,1.90
2023-05-08T03:37:22.585Z,2.55
2023-05-08T03:42:22.394Z,2.00
2023-05-08T03:47:22.556Z,1.85
2023-05-08T03:52:23.386Z,1.50
2023-05-08T03:57:22.801Z,2.28
2023-05-08T04:02:29.965Z,2.08
2023-05-08T04:07:38.021Z,2.55
2023-05-08T04:12:46.451Z,1.90
2023-05-08T04:17:51.398Z,2.13
2023-05-08T04:22:54.944Z,2.75
2023-05-08T04:27:57.707Z,2.17
2023-05-08T04:32:58.089Z,2.28
2023-05-08T04:38:00.210Z,1.52
2023-05-08T04:42:59.396Z,3.30
2023-05-08T04:47:59.051Z,1.85
2023-05-08T04:52:59.299Z,1.80
2023-05-08T04:57:58.258Z,1.77
2023-05-08T05:02:57.293Z,2.58
2023-05-08T05:07:56.203Z,2.58
2023-05-08T05:12:56.428Z,2.20
2023-05-08T05:17:58.253Z,1.92
2023-05-08T05:22:57.805Z,1.92
2023-05-08T05:27:58.907Z,2.78
2023-05-08T05:32:58.485Z,2.25
2023-05-08T05:37:57.399Z,1.92
2023-05-08T05:42:56.350Z,2.00
2023-05-08T05:47:56.399Z,2.00
2023-05-08T05:52:57.850Z,2.05
2023-05-08T05:57:57.885Z,1.90
2023-05-08T06:02:59.077Z,2.30
2023-05-08T06:07:58.268Z,2.28
2023-05-08T06:12:57.179Z,1.98
2023-05-08T06:17:56.561Z,1.95
2023-05-08T06:22:56.730Z,2.70
2023-05-08T06:27:55.380Z,1.88
2023-05-08T06:32:54.218Z,2.88
2023-05-08T06:37:53.046Z,2.00
2023-05-08T06:42:53.109Z,1.45
2023-05-08T06:47:51.814Z,2.78
2023-05-08T06:52:50.478Z,1.73
2023-05-08T06:57:49.168Z,8.10
2023-05-08T07:02:49.297Z,1.85
2023-05-08T07:07:48.024Z,1.70
2023-05-08T07:12:46.837Z,1.63
2023-05-08T07:17:45.850Z,2.20
2023-05-08T07:22:46.554Z,1.60
2023-05-08T07:27:45.240Z,2.08
2023-05-08T07:32:44.054Z,2.70
2023-05-08T07:37:42.889Z,1.77
2023-05-08T07:42:44.369Z,1.73
2023-05-08T07:47:50.939Z,2.10
2023-05-08T07:52:50.590Z,1.98
2023-05-08T07:57:50.806Z,1.92
2023-05-08T08:02:51.449Z,1.58
2023-05-08T08:07:50.546Z,1.67
2023-05-08T08:12:50.695Z,2.10
2023-05-08T08:17:49.611Z,2.10
2023-05-08T08:22:48.542Z,2.22
2023-05-08T08:27:49.801Z,1.95
2023-05-08T08:32:50.207Z,2.10
2023-05-08T08:37:48.954Z,2.15
2023-05-08T08:42:47.773Z,1.67
2023-05-08T08:47:47.051Z,1.52
2023-05-08T08:52:56.947Z,1.90
2023-05-08T08:58:04.478Z,1.85
2023-05-08T09:03:03.616Z,2.47
2023-05-08T09:08:05.803Z,1.90
2023-05-08T09:13:05.003Z,1.83
2023-05-08T09:18:04.001Z,1.95
2023-05-08T09:23:04.295Z,2.40
2023-05-08T09:28:16.791Z,1.45
2023-05-08T09:33:15.658Z,2.00
2023-05-08T09:43:37.170Z,2.70
2023-05-08T09:48:38.951Z,2.38
2023-05-08T09:53:38.004Z,2.47
2023-05-08T09:58:41.745Z,2.50
2023-05-08T10:03:50.361Z,2.75
2023-05-08T10:08:49.711Z,3.38
2023-05-08T10:13:49.758Z,2.83
2023-05-08T10:18:50.516Z,2.40
2023-05-08T10:23:52.299Z,3.28
2023-05-08T10:28:57.536Z,2.58
2023-05-08T10:33:57.403Z,2.13
2023-05-08T10:38:58.715Z,2.42
2023-05-08T10:44:02.560Z,2.50
2023-05-08T10:49:14.134Z,2.63
2023-05-08T10:54:21.822Z,2.65
2023-05-08T10:59:23.014Z,2.60
2023-05-08T11:04:22.664Z,3.00
2023-05-08T11:09:23.244Z,2.45
2023-05-08T11:14:25.419Z,3.20
2023-05-08T11:19:26.257Z,2.60
2023-05-08T11:24:36.030Z,2.53
2023-05-08T11:29:36.319Z,2.55
2023-05-08T11:34:48.972Z,3.20
2023-05-08T11:39:47.935Z,2.90
2023-05-08T11:44:48.098Z,2.65
2023-05-08T11:49:46.892Z,2.92
2023-05-08T11:54:45.683Z,3.42
2023-05-08T11:59:44.965Z,3.72
2023-05-08T12:04:48.460Z,3.67
2023-05-08T12:09:48.061Z,4.03
2023-05-08T12:14:51.010Z,3.67
2023-05-08T12:19:56.584Z,3.45
2023-05-08T12:24:55.326Z,4.20
2023-05-08T12:29:54.175Z,4.13
2023-05-08T12:34:54.470Z,3.58
2023-05-08T12:39:53.136Z,4.57
2023-05-08T12:44:52.648Z,4.28
2023-05-08T12:49:52.778Z,5.32
2023-05-08T12:54:52.912Z,5.40
2023-05-08T12:59:51.778Z,4.63
2023-05-08T13:04:56.069Z,5.57
2023-05-08T13:10:00.260Z,6.55
2023-05-08T13:14:59.185Z,5.97
2023-05-08T13:19:57.931Z,6.95
2023-05-08T13:24:56.686Z,6.57
2023-05-08T13:29:56.830Z,5.10
2023-05-08T13:34:58.799Z,5.32
2023-05-08T13:39:59.620Z,5.18
2023-05-08T13:44:59.858Z,6.32
2023-05-08T13:49:58.666Z,5.72
2023-05-08T13:54:58.137Z,5.82
2023-05-08T13:59:56.943Z,4.70
2023-05-08T14:04:57.696Z,4.85
2023-05-08T14:09:56.547Z,4.80
2023-05-08T14:14:55.271Z,4.40
2023-05-08T14:19:59.866Z,3.53
2023-05-08T14:24:58.650Z,4.70
2023-05-08T14:29:57.970Z,4.35
2023-05-08T14:34:58.297Z,4.60
2023-05-08T14:39:58.721Z,4.57
2023-05-08T14:44:57.545Z,3.80
2023-05-08T14:49:56.368Z,4.65
2023-05-08T14:54:56.682Z,3.75
2023-05-08T14:59:56.918Z,4.75
2023-05-08T15:04:55.799Z,4.45
2023-05-08T15:09:54.517Z,9.05
2023-05-08T15:14:54.753Z,4.50
2023-05-08T15:19:53.558Z,4.32
2023-05-08T15:24:52.415Z,5.68
2023-05-08T15:29:51.819Z,6.07
2023-05-08T15:34:52.000Z,5.63
2023-05-08T15:39:50.945Z,4.95
2023-05-08T15:44:54.632Z,4.80
2023-05-08T15:49:55.515Z,7.80
2023-05-08T15:54:54.262Z,6.15
2023-05-08T15:59:52.970Z,6.60
2023-05-08T16:04:51.803Z,4.68
2023-05-08T16:09:52.007Z,8.82
2023-05-08T16:14:50.716Z,10.25
2023-05-08T16:19:49.486Z,5.10
2023-05-08T16:24:48.165Z,14.70
2023-05-08T16:29:48.421Z,16.45
2023-05-08T16:34:47.092Z,5.53
2023-05-08T16:39:45.823Z,4.57
2023-05-08T16:44:44.464Z,5.05
2023-05-08T16:49:45.085Z,5.18
2023-05-08T16:54:43.995Z,4.65
2023-05-08T16:59:42.673Z,4.55
2023-05-08T17:04:41.836Z,5.30
2023-05-08T17:09:42.328Z,4.28
2023-05-08T17:14:42.720Z,5.30
2023-05-08T17:19:43.170Z,5.32
2023-05-08T17:24:43.461Z,5.47
2023-05-08T17:29:42.198Z,6.32
2023-05-08T17:34:41.057Z,4.82
2023-05-08T17:39:39.858Z,4.68
2023-05-08T17:44:40.027Z,5.88
2023-05-08T17:49:38.975Z,5.50
2023-05-08T17:54:37.806Z,4.47
2023-05-08T17:59:36.540Z,4.93
2023-05-08T18:04:36.646Z,4.80
2023-05-08T18:09:35.461Z,4.45
2023-05-08T18:14:34.851Z,4.93
2023-05-08T18:19:34.120Z,4.43
2023-05-08T18:24:34.200Z,5.18
2023-05-08T18:29:32.967Z,5.53
2023-05-08T18:34:33.001Z,5.75
2023-05-08T18:39:33.127Z,5.85
2023-05-08T18:44:31.993Z,5.30
2023-05-08T18:49:30.837Z,7.15
2023-05-08T18:54:30.078Z,6.30
2023-05-08T18:59:30.276Z,5.07
2023-05-08T19:04:29.051Z,5.13
2023-05-08T19:09:27.840Z,5.60
2023-05-08T19:14:26.622Z,5.35
2023-05-08T19:19:27.684Z,5.93
2023-05-08T19:24:29.885Z,5.25
2023-05-08T19:29:28.770Z,7.15
2023-05-08T19:34:29.136Z,6.55
2023-05-08T19:39:28.230Z,5.95
2023-05-08T19:44:28.160Z,5.70
2023-05-08T19:49:28.815Z,5.95
2023-05-08T19:54:27.596Z,6.05
2023-05-08T19:59:26.503Z,6.78
2023-05-08T20:04:25.427Z,6.55
2023-05-08T20:09:25.670Z,7.38
2023-05-08T20:14:24.518Z,6.97
2023-05-08T20:19:23.360Z,7.57
2023-05-08T20:24:23.392Z,5.20
2023-05-08T20:29:24.331Z,4.82
2023-05-08T20:34:23.121Z,5.35
2023-05-08T20:39:21.922Z,4.72
2023-05-08T20:44:20.610Z,4.68
2023-05-08T20:49:20.764Z,4.07
2023-05-08T20:54:19.443Z,1.50
2023-05-08T20:59:18.870Z,1.40
2023-05-08T21:04:20.474Z,0.90
2023-05-08T21:09:19.641Z,1.02
2023-05-08T21:14:18.405Z,1.13
2023-05-08T21:19:17.766Z,1.10
2023-05-08T21:24:17.919Z,1.50
2023-05-08T21:29:16.767Z,1.55
2023-05-08T21:34:16.512Z,2.55
2023-05-08T21:39:15.235Z,2.38
2023-05-08T21:44:16.084Z,2.20
2023-05-08T21:49:15.494Z,2.00
2023-05-08T21:54:14.338Z,1.88
2023-05-08T21:59:13.095Z,2.20
2023-05-08T22:04:13.154Z,2.47
2023-05-08T22:09:11.838Z,2.58
2023-05-08T22:14:10.560Z,2.67
2023-05-08T22:19:11.475Z,3.42
2023-05-08T22:24:11.589Z,4.63
2023-05-08T22:29:10.284Z,4.53
2023-05-08T22:34:09.231Z,4.97
2023-05-08T22:39:10.153Z,5.10
2023-05-08T22:44:10.529Z,4.90
2023-05-08T22:49:10.349Z,5.85
2023-05-08T22:54:09.039Z,5.68
2023-05-08T22:59:07.970Z,5.40
2023-05-08T23:04:08.166Z,5.40
2023-05-08T23:09:06.936Z,6.10
2023-05-08T23:14:05.755Z,5.72
2023-05-08T23:19:04.682Z,5.78
2023-05-08T23:24:06.081Z,6.10
2023-05-08T23:29:04.793Z,5.78
2023-05-08T23:34:03.612Z,6.18
2023-05-08T23:39:02.297Z,5.95
2023-05-08T23:44:02.472Z,5.97
2023-05-08T23:49:01.173Z,6.20
2023-05-08T23:53:59.947Z,5.63
2023-05-08T23:58:58.765Z,5.90
